Time;durP1;ratioP1;P1;durP2;ratioP2;P2;SDS_P1;SDS_P2;PMS_P1;PMS_P2;Temp;Humidity;BMP_temperature;BMP_pressure;BME280_temperature;BME280_humidity;BME280_pressure;Samples;Min_cycle;Max_cycle;Signal;HPM_P1;HPM_P2
2021/08/13 00:00:50;;;;;;;6.97;3.65;;;;;;;23.69;51.96;100962.63;5130685;27;20023;-63
2021/08/13 00:03:17;;;;;;;4.93;3.65;;;;;;;23.78;52.21;100981.44;5130836;27;20019;-63
2021/08/13 00:05:43;;;;;;;4.85;3.60;;;;;;;23.74;52.01;100974.69;5130515;27;20057;-63
2021/08/13 00:08:09;;;;;;;7.35;4.00;;;;;;;23.67;52.19;100965.56;5130853;27;20046;-63
2021/08/13 00:10:35;;;;;;;7.88;4.10;;;;;;;23.63;52.29;100961.53;5130839;27;20049;-63
2021/08/13 00:13:00;;;;;;;6.80;4.07;;;;;;;23.65;52.65;100975.91;5129036;27;20146;-62
2021/08/13 00:15:26;;;;;;;7.50;3.90;;;;;;;23.62;52.58;100970.81;5130694;28;20479;-63
2021/08/13 00:17:53;;;;;;;4.45;3.78;;;;;;;23.56;53.58;100966.16;5129104;28;20026;-63
2021/08/13 00:20:20;;;;;;;9.52;4.32;;;;;;;23.56;53.93;100963.41;5130623;27;20051;-63
2021/08/13 00:22:46;;;;;;;6.65;4.22;;;;;;;23.54;54.32;100968.25;5130482;27;20312;-63
2021/08/13 00:25:12;;;;;;;5.40;4.22;;;;;;;23.43;54.58;100968.81;5130569;27;20497;-63
2021/08/13 00:27:37;;;;;;;6.65;3.83;;;;;;;23.41;54.66;100968.16;5130932;27;20023;-62
2021/08/13 00:30:03;;;;;;;5.20;4.15;;;;;;;23.37;54.45;100975.09;5128940;28;20034;-62
2021/08/13 00:32:29;;;;;;;6.93;4.38;;;;;;;23.25;54.27;100962.19;5128863;27;20063;-62
2021/08/13 00:34:54;;;;;;;5.82;3.78;;;;;;;23.31;54.72;100972.34;5128791;28;20075;-63
2021/08/13 00:37:20;;;;;;;8.13;4.00;;;;;;;23.21;55.29;100960.88;5130537;27;20027;-63
2021/08/13 00:39:45;;;;;;;5.75;4.00;;;;;;;23.20;55.89;100970.97;5130206;27;20031;-63
2021/08/13 00:42:11;;;;;;;9.32;4.18;;;;;;;23.18;56.28;100974.97;5130479;27;20031;-62
2021/08/13 00:44:36;;;;;;;5.50;3.80;;;;;;;23.15;56.15;100972.63;5130810;27;20015;-63
2021/08/13 00:47:02;;;;;;;7.00;3.85;;;;;;;23.07;56.47;100975.50;5130677;27;20034;-61
2021/08/13 00:49:27;;;;;;;7.75;4.13;;;;;;;23.01;55.88;100968.06;5130313;27;20027;-62
2021/08/13 00:51:53;;;;;;;8.10;4.30;;;;;;;22.96;56.47;100973.31;5130337;27;20021;-62
2021/08/13 00:54:19;;;;;;;9.27;4.47;;;;;;;22.95;56.55;100975.19;5130392;27;20660;-62
2021/08/13 00:56:45;;;;;;;7.45;4.78;;;;;;;22.87;57.04;100966.28;5130298;27;20035;-62
2021/08/13 00:59:11;;;;;;;6.95;4.20;;;;;;;22.84;57.29;100978.47;5129023;28;20065;-62
2021/08/13 01:01:37;;;;;;;6.85;4.13;;;;;;;22.74;57.29;100972.50;5130411;27;20047;-62
2021/08/13 01:04:03;;;;;;;7.53;4.82;;;;;;;22.71;57.38;100977.50;5130184;27;20135;-62
2021/08/13 01:06:28;;;;;;;7.65;4.20;;;;;;;22.68;57.29;100978.75;5130059;27;20029;-62
2021/08/13 01:08:54;;;;;;;6.13;4.15;;;;;;;22.61;57.74;100972.38;5130155;27;20360;-63
2021/08/13 01:11:53;;;;;;;4.85;3.95;;;;;;;22.58;58.11;100980.13;5130007;27;20046;-63
2021/08/13 01:14:33;;;;;;;5.10;4.25;;;;;;;22.53;58.09;100971.69;5130174;27;20102;-63
2021/08/13 01:16:59;;;;;;;7.32;4.43;;;;;;;22.48;57.76;100976.84;5128747;28;20031;-63
2021/08/13 01:20:04;;;;;;;5.38;4.05;;;;;;;22.43;57.98;100977.41;5129841;27;20031;-63
2021/08/13 01:22:47;;;;;;;4.88;4.00;;;;;;;22.38;58.14;100971.72;5132667;27;20068;-63
2021/08/13 01:25:19;;;;;;;6.40;4.13;;;;;;;22.36;58.44;100976.50;5133906;27;20098;-62
2021/08/13 01:27:49;;;;;;;5.38;4.22;;;;;;;22.33;58.43;100969.56;5133442;27;20027;-63
2021/08/13 01:30:17;;;;;;;9.48;4.28;;;;;;;22.31;58.19;100968.03;5133688;27;20031;-63
2021/08/13 01:32:48;;;;;;;10.65;4.28;;;;;;;22.28;58.60;100971.19;5133471;27;20375;-63
2021/08/13 01:35:37;;;;;;;5.20;4.35;;;;;;;22.18;58.66;100966.03;5133396;27;20039;-63
2021/08/13 01:38:17;;;;;;;4.82;4.15;;;;;;;22.22;58.79;100972.78;5132060;27;20053;-63
2021/08/13 01:40:47;;;;;;;4.90;4.13;;;;;;;22.20;58.79;100972.16;5133510;27;20043;-63
2021/08/13 01:43:17;;;;;;;7.00;4.40;;;;;;;22.17;58.83;100967.06;5134002;27;20016;-63
2021/08/13 01:45:44;;;;;;;5.40;4.03;;;;;;;22.15;58.96;100963.66;5133394;27;20393;-62
2021/08/13 01:48:11;;;;;;;6.68;4.30;;;;;;;22.12;58.79;100968.69;5133818;27;20443;-63
2021/08/13 01:50:39;;;;;;;6.03;4.25;;;;;;;22.09;58.88;100969.91;5132770;27;20420;-63
2021/08/13 01:53:05;;;;;;;6.75;4.68;;;;;;;22.05;59.12;100973.22;5133318;27;20028;-63
2021/08/13 01:55:31;;;;;;;6.95;4.28;;;;;;;22.03;59.16;100973.41;5133224;27;20489;-63
2021/08/13 01:57:58;;;;;;;8.27;4.55;;;;;;;22.04;59.12;100966.06;5131744;27;20470;-63
2021/08/13 02:00:24;;;;;;;10.10;4.97;;;;;;;22.01;59.23;100974.66;5133235;27;20039;-63
2021/08/13 02:02:51;;;;;;;6.25;4.18;;;;;;;21.97;59.23;100967.88;5132937;27;20023;-63
2021/08/13 02:05:20;;;;;;;5.45;3.83;;;;;;;21.96;59.28;100974.41;5132719;27;20039;-63
2021/08/13 02:07:47;;;;;;;8.23;4.35;;;;;;;21.88;59.48;100971.75;5132544;27;20035;-63
2021/08/13 02:10:13;;;;;;;8.10;4.63;;;;;;;21.93;59.72;100982.97;5133147;27;20023;-63
2021/08/13 02:12:39;;;;;;;6.93;4.25;;;;;;;21.85;59.89;100972.13;5132944;27;20094;-63
2021/08/13 02:15:06;;;;;;;9.07;4.88;;;;;;;21.89;59.84;100985.22;5132769;27;20027;-63
2021/08/13 02:17:35;;;;;;;6.18;4.47;;;;;;;21.84;60.01;100976.78;5132806;27;20595;-63
2021/08/13 02:20:07;;;;;;;5.75;4.55;;;;;;;21.81;59.95;100970.84;5132210;27;20491;-63
2021/08/13 02:22:33;;;;;;;8.38;4.60;;;;;;;21.73;60.44;100969.06;5132745;27;20065;-63
2021/08/13 02:24:58;;;;;;;5.75;4.60;;;;;;;21.73;60.73;100985.44;5132834;27;20059;-62
2021/08/13 02:27:27;;;;;;;8.65;4.53;;;;;;;21.64;61.08;100966.59;5132566;27;20114;-62
2021/08/13 02:29:54;;;;;;;7.57;4.63;;;;;;;21.62;61.33;100980.44;5132389;27;20443;-62
2021/08/13 02:32:19;;;;;;;5.60;4.68;;;;;;;21.62;61.45;100982.31;5131019;27;20386;-62
2021/08/13 02:34:45;;;;;;;6.47;4.72;;;;;;;21.50;61.93;100962.84;5131871;27;20031;-62
2021/08/13 02:37:30;;;;;;;7.18;4.80;;;;;;;21.55;62.09;100973.19;5131582;27;20027;-62
2021/08/13 02:39:58;;;;;;;5.63;4.53;;;;;;;21.50;62.55;100979.22;5132169;27;20390;-62
2021/08/13 02:42:33;;;;;;;9.23;4.47;;;;;;;21.40;63.04;100969.59;5132041;27;20027;-63
2021/08/13 02:45:00;;;;;;;7.63;4.90;;;;;;;21.39;63.27;100976.13;5130884;27;20031;-64
2021/08/13 02:47:29;;;;;;;6.05;4.43;;;;;;;21.20;63.60;100958.41;5132062;27;20068;-64
2021/08/13 02:50:07;;;;;;;6.00;5.03;;;;;;;21.26;63.98;100984.97;5132013;27;20035;-64
2021/08/13 02:52:47;;;;;;;5.38;4.60;;;;;;;21.19;64.31;100986.75;5130233;27;20030;-61
2021/08/13 02:55:19;;;;;;;6.82;5.30;;;;;;;21.13;64.39;100987.50;5130518;27;20019;-63
2021/08/13 02:57:50;;;;;;;7.30;4.72;;;;;;;21.07;64.74;100982.78;5131789;27;20035;-63
2021/08/13 03:00:16;;;;;;;8.65;5.10;;;;;;;20.99;64.90;100974.66;5130549;27;20038;-61
2021/08/13 03:02:42;;;;;;;9.48;5.70;;;;;;;20.93;64.98;100974.53;5131878;27;20421;-62
2021/08/13 03:05:10;;;;;;;6.93;4.95;;;;;;;20.94;65.11;100979.84;5131958;27;20019;-62
2021/08/13 03:07:37;;;;;;;8.20;5.50;;;;;;;20.89;64.95;100976.78;5131656;27;20038;-61
2021/08/13 03:10:03;;;;;;;5.88;5.28;;;;;;;20.79;65.23;100976.19;5131317;27;20023;-60
2021/08/13 03:12:29;;;;;;;9.25;4.82;;;;;;;20.82;65.46;100973.09;5131485;27;20030;-61
2021/08/13 03:14:57;;;;;;;9.35;5.82;;;;;;;20.80;65.36;100982.50;5131447;27;20428;-63
2021/08/13 03:17:23;;;;;;;7.32;4.88;;;;;;;20.74;65.36;100977.78;5131693;27;20079;-62
2021/08/13 03:19:49;;;;;;;6.57;4.90;;;;;;;20.70;65.15;100974.56;5129869;27;20687;-62
2021/08/13 03:22:17;;;;;;;8.23;5.07;;;;;;;20.71;65.13;100981.72;5131325;27;20031;-62
2021/08/13 03:24:43;;;;;;;6.95;5.35;;;;;;;20.72;65.21;100983.41;5129958;27;20023;-61
2021/08/13 03:27:10;;;;;;;7.72;5.03;;;;;;;20.74;65.16;100996.88;5131400;27;20038;-62
2021/08/13 03:29:36;;;;;;;7.75;5.47;;;;;;;20.70;65.37;100990.91;5131187;27;20054;-62
2021/08/13 03:32:04;;;;;;;7.38;5.30;;;;;;;20.72;65.24;100998.91;5131103;27;20027;-61
2021/08/13 03:34:30;;;;;;;7.80;5.32;;;;;;;20.69;64.59;100999.28;5130880;27;20054;-62
2021/08/13 03:36:57;;;;;;;6.88;4.60;;;;;;;20.70;64.96;101001.81;5129716;27;20417;-61
2021/08/13 03:39:23;;;;;;;8.00;4.80;;;;;;;20.70;64.90;101009.19;5131095;27;20034;-62
2021/08/13 03:41:49;;;;;;;7.65;5.18;;;;;;;20.69;65.01;101015.63;5131018;27;20063;-62
2021/08/13 03:44:14;;;;;;;11.30;5.38;;;;;;;20.67;65.50;101020.44;5130541;27;20378;-62
2021/08/13 03:46:40;;;;;;;7.60;5.15;;;;;;;20.62;65.75;101004.63;5131036;27;20401;-62
2021/08/13 03:49:06;;;;;;;12.00;5.85;;;;;;;20.63;65.94;101010.94;5129000;27;20019;-62
2021/08/13 03:51:32;;;;;;;7.70;5.50;;;;;;;20.61;66.07;101008.41;5129951;27;20420;-62
2021/08/13 03:53:57;;;;;;;9.75;5.63;;;;;;;20.59;66.41;101015.03;5130306;27;20044;-62
2021/08/13 03:56:23;;;;;;;9.18;4.82;;;;;;;20.53;66.53;101011.16;5130713;27;20023;-62
2021/08/13 03:58:48;;;;;;;12.65;5.13;;;;;;;20.49;66.84;100998.09;5130381;27;20544;-62
2021/08/13 04:01:14;;;;;;;7.15;4.93;;;;;;;20.50;67.17;101008.81;5130703;27;20016;-62
2021/08/13 04:03:39;;;;;;;13.55;6.43;;;;;;;20.52;67.79;101014.94;5130628;27;20443;-62
2021/08/13 04:06:05;;;;;;;14.23;6.97;;;;;;;20.48;68.29;101015.47;5130259;27;20011;-62
2021/08/13 04:08:30;;;;;;;9.90;6.78;;;;;;;20.43;67.99;101010.56;5130369;27;20439;-62
2021/08/13 04:10:56;;;;;;;9.43;5.75;;;;;;;20.40;67.45;101008.19;5128775;27;20015;-61
2021/08/13 04:13:21;;;;;;;9.60;5.10;;;;;;;20.38;66.95;101003.97;5130693;27;20019;-62
2021/08/13 04:15:47;;;;;;;11.80;5.70;;;;;;;20.40;67.23;101008.19;5130233;27;20038;-62
2021/08/13 04:18:12;;;;;;;14.70;5.25;;;;;;;20.46;66.95;101015.66;5129227;27;20038;-62
2021/08/13 04:20:38;;;;;;;10.45;5.72;;;;;;;20.48;66.69;101020.94;5128839;28;20122;-62
2021/08/13 04:23:04;;;;;;;10.55;5.50;;;;;;;20.50;66.13;101010.72;5130111;28;20050;-62
2021/08/13 04:25:30;;;;;;;15.70;4.93;;;;;;;20.60;65.57;101020.31;5127573;28;20038;-62
2021/08/13 04:27:55;;;;;;;7.07;5.20;;;;;;;20.67;65.29;101023.16;5130310;28;20023;-62
2021/08/13 04:30:21;;;;;;;6.93;5.60;;;;;;;20.72;65.06;101027.03;5129896;28;20107;-61
2021/08/13 04:32:46;;;;;;;7.57;5.18;;;;;;;20.78;64.50;101029.03;5130485;27;20161;-61
2021/08/13 04:35:12;;;;;;;8.38;5.05;;;;;;;20.80;64.34;101015.22;5130511;28;20494;-62
2021/08/13 04:37:37;;;;;;;7.63;4.95;;;;;;;20.93;63.99;101024.47;5130440;27;20031;-62
2021/08/13 04:40:04;;;;;;;9.63;5.40;;;;;;;21.01;63.65;101029.88;5129919;28;20061;-62
2021/08/13 04:42:29;;;;;;;8.13;5.28;;;;;;;21.10;62.95;101042.44;5125639;28;20031;-61
2021/08/13 04:44:55;;;;;;;10.32;4.93;;;;;;;21.15;62.51;101034.53;5128794;28;20026;-61
2021/08/13 04:47:20;;;;;;;9.95;5.32;;;;;;;21.18;61.96;101025.13;5127668;28;20126;-62
2021/08/13 04:49:46;;;;;;;6.07;4.60;;;;;;;21.35;61.67;101035.66;5129171;27;20068;-61
2021/08/13 04:52:11;;;;;;;8.57;4.63;;;;;;;21.46;61.21;101037.09;5129109;27;20031;-62
2021/08/13 04:54:37;;;;;;;9.30;5.03;;;;;;;21.59;60.41;101050.94;5128962;27;20038;-62
2021/08/13 04:57:02;;;;;;;8.77;4.72;;;;;;;21.72;60.12;101051.13;5132551;27;20072;-61
2021/08/13 04:59:28;;;;;;;8.88;4.97;;;;;;;21.84;59.73;101047.78;5133158;27;20568;-61
2021/08/13 05:01:53;;;;;;;8.40;4.82;;;;;;;21.97;59.22;101052.56;5132844;27;20042;-61
2021/08/13 05:04:19;;;;;;;10.07;5.03;;;;;;;22.11;58.65;101055.28;5132929;27;20031;-62
2021/08/13 05:06:45;;;;;;;10.68;5.10;;;;;;;22.29;58.14;101058.44;5132781;27;20016;-61
2021/08/13 05:09:11;;;;;;;13.35;5.70;;;;;;;22.47;57.80;101066.22;5133209;27;20102;-61
2021/08/13 05:11:37;;;;;;;8.98;5.15;;;;;;;22.65;57.09;101063.94;5132240;27;20458;-61
2021/08/13 05:14:03;;;;;;;11.65;5.40;;;;;;;22.75;56.64;101053.50;5132533;27;20106;-61
2021/08/13 05:16:29;;;;;;;8.55;4.63;;;;;;;22.90;55.78;101050.72;5132700;27;20050;-61
2021/08/13 05:18:54;;;;;;;8.18;4.63;;;;;;;23.07;55.32;101063.91;5131885;27;20019;-61
2021/08/13 05:21:20;;;;;;;8.85;4.85;;;;;;;23.16;54.42;101061.88;5132639;27;20398;-62
2021/08/13 05:23:45;;;;;;;8.38;4.57;;;;;;;23.27;53.45;101062.22;5134552;27;20060;-62
2021/08/13 05:26:10;;;;;;;7.28;4.38;;;;;;;23.36;53.50;101072.00;5133207;27;20027;-61
2021/08/13 05:28:36;;;;;;;5.22;4.50;;;;;;;23.48;53.27;101072.28;5134518;27;20031;-61
2021/08/13 05:31:02;;;;;;;8.57;4.15;;;;;;;23.56;52.87;101067.50;5133870;27;20030;-62
2021/08/13 05:33:27;;;;;;;7.38;4.43;;;;;;;23.76;52.73;101082.16;5133962;27;20039;-61
2021/08/13 05:35:53;;;;;;;10.18;4.53;;;;;;;23.82;52.02;101070.41;5133917;27;20031;-62
2021/08/13 05:38:18;;;;;;;6.22;4.40;;;;;;;24.00;51.44;101078.13;5131733;27;20488;-61
2021/08/13 05:40:44;;;;;;;8.57;4.53;;;;;;;24.06;51.11;101063.59;5133015;27;20059;-62
2021/08/13 05:43:09;;;;;;;6.40;4.20;;;;;;;24.18;51.01;101081.16;5132754;27;20038;-61
2021/08/13 05:45:35;;;;;;;7.82;4.28;;;;;;;24.24;51.03;101075.69;5132515;27;20474;-61
2021/08/13 05:48:01;;;;;;;8.07;4.47;;;;;;;24.32;50.82;101072.78;5132607;27;20019;-63
2021/08/13 05:50:27;;;;;;;7.93;4.20;;;;;;;24.36;50.63;101070.47;5132345;27;20110;-63
2021/08/13 05:52:52;;;;;;;7.22;4.30;;;;;;;24.43;50.33;101057.63;5132493;27;20019;-62
2021/08/13 05:55:18;;;;;;;4.38;3.90;;;;;;;24.63;50.07;101063.19;5132564;27;20019;-63
2021/08/13 05:57:44;;;;;;;7.55;4.25;;;;;;;24.78;49.97;101061.97;5132789;27;20044;-63
2021/08/13 06:00:11;;;;;;;6.95;4.03;;;;;;;24.87;49.54;101048.88;5132659;27;20381;-63
2021/08/13 06:02:36;;;;;;;10.82;4.25;;;;;;;25.12;49.01;101063.69;5132888;27;20118;-63
2021/08/13 06:05:02;;;;;;;8.80;4.38;;;;;;;25.29;48.05;101048.47;5132522;27;20102;-62
2021/08/13 06:07:28;;;;;;;5.05;4.10;;;;;;;25.47;47.99;101048.72;5131296;27;20038;-62
2021/08/13 06:09:53;;;;;;;6.30;3.92;;;;;;;25.63;47.25;101042.78;5132641;27;20019;-62
2021/08/13 06:12:19;;;;;;;6.38;3.67;;;;;;;25.79;46.55;101037.63;5132916;27;20031;-62
2021/08/13 06:14:45;;;;;;;7.70;4.07;;;;;;;25.92;46.05;101028.53;5132650;27;20113;-62
2021/08/13 06:17:11;;;;;;;6.65;3.80;;;;;;;26.10;45.63;101037.78;5132682;27;20498;-62
2021/08/13 06:19:36;;;;;;;8.13;3.60;;;;;;;26.25;45.19;101041.06;5129459;27;20114;-62
2021/08/13 06:22:03;;;;;;;6.72;4.35;;;;;;;26.38;44.71;101031.94;5127974;27;20039;-62
2021/08/13 06:24:30;;;;;;;13.23;4.30;;;;;;;26.51;44.11;101026.34;5131918;27;20232;-62
2021/08/13 06:26:56;;;;;;;6.25;3.65;;;;;;;26.72;44.03;101038.97;5130951;27;20026;-62
2021/08/13 06:29:21;;;;;;;11.73;4.05;;;;;;;26.83;43.60;101032.72;5132813;27;20030;-63
2021/08/13 06:31:48;;;;;;;4.65;3.70;;;;;;;26.96;43.19;101019.72;5132735;27;20095;-63
2021/08/13 06:34:17;;;;;;;10.32;3.63;;;;;;;27.16;43.01;101016.78;5130655;27;20570;-63
2021/08/13 06:36:43;;;;;;;6.72;3.80;;;;;;;27.34;42.40;101039.75;5130976;27;20427;-62
2021/08/13 06:39:09;;;;;;;4.72;2.95;;;;;;;27.50;41.82;101046.59;5132132;27;20030;-63
2021/08/13 06:41:34;;;;;;;13.60;4.10;;;;;;;27.62;41.83;101040.09;5132137;27;20409;-63
2021/08/13 06:43:59;;;;;;;6.20;3.53;;;;;;;27.76;41.69;101044.41;5132046;27;20125;-63
2021/08/13 06:46:25;;;;;;;8.43;3.30;;;;;;;27.89;41.36;101040.69;5132105;27;20027;-63
2021/08/13 06:48:50;;;;;;;7.82;3.60;;;;;;;28.02;41.26;101038.59;5131690;27;20075;-64
2021/08/13 06:51:16;;;;;;;5.72;3.40;;;;;;;28.17;40.86;101033.53;5132447;27;20030;-61
2021/08/13 06:53:41;;;;;;;7.43;3.45;;;;;;;28.30;40.57;101041.66;5131907;27;20023;-61
2021/08/13 06:56:07;;;;;;;4.80;3.17;;;;;;;28.42;40.00;101038.94;5131909;27;20019;-62
2021/08/13 06:58:33;;;;;;;7.82;3.88;;;;;;;28.58;39.99;101045.75;5131743;27;20451;-62
2021/08/13 07:00:59;;;;;;;4.70;3.45;;;;;;;28.70;39.81;101044.75;5131690;27;20046;-62
2021/08/13 07:03:25;;;;;;;3.63;3.17;;;;;;;28.78;40.03;101035.25;5130136;27;20075;-63
2021/08/13 07:05:50;;;;;;;5.93;2.95;;;;;;;28.97;39.44;101047.91;5130076;27;20506;-62
2021/08/13 07:08:16;;;;;;;4.35;3.53;;;;;;;29.11;38.86;101043.91;5131202;27;20026;-62
2021/08/13 07:10:41;;;;;;;5.65;3.72;;;;;;;29.21;38.40;101038.63;5131631;27;20037;-64
2021/08/13 07:13:07;;;;;;;7.10;3.45;;;;;;;29.32;38.21;101035.88;5131462;27;20019;-63
2021/08/13 07:15:32;;;;;;;4.35;3.10;;;;;;;29.41;38.09;101042.75;5131917;27;20036;-63
2021/08/13 07:17:58;;;;;;;5.70;3.30;;;;;;;29.58;38.12;101046.47;5130855;27;20530;-63
2021/08/13 07:20:26;;;;;;;3.50;2.90;;;;;;;29.65;37.56;101027.00;5131179;27;20488;-63
2021/08/13 07:22:52;;;;;;;4.15;3.28;;;;;;;29.87;37.34;101047.41;5131139;27;20019;-63
2021/08/13 07:25:18;;;;;;;3.05;2.75;;;;;;;29.99;37.10;101035.25;5131640;27;20022;-63
2021/08/13 07:27:44;;;;;;;6.63;3.05;;;;;;;30.13;37.05;101041.34;5131327;27;20389;-63
2021/08/13 07:30:10;;;;;;;6.72;3.47;;;;;;;30.28;36.80;101041.72;5131221;27;20080;-63
2021/08/13 07:32:35;;;;;;;6.15;2.80;;;;;;;30.39;36.40;101041.66;5131044;27;20050;-63
2021/08/13 07:35:01;;;;;;;4.43;3.00;;;;;;;30.50;35.91;101038.00;5130725;27;20086;-63
2021/08/13 07:37:26;;;;;;;5.45;2.83;;;;;;;30.60;36.04;101043.72;5131234;27;20023;-63
2021/08/13 07:39:52;;;;;;;10.00;3.10;;;;;;;30.68;35.60;101045.25;5130960;27;20019;-63
2021/08/13 07:42:17;;;;;;;4.70;2.97;;;;;;;30.70;36.00;101042.25;5131400;27;20015;-64
2021/08/13 07:44:43;;;;;;;4.60;3.10;;;;;;;30.69;35.58;101040.56;5131068;27;20025;-64
2021/08/13 07:47:09;;;;;;;5.43;3.15;;;;;;;30.68;35.61;101045.25;5130778;27;20064;-63
2021/08/13 07:49:34;;;;;;;5.57;3.08;;;;;;;30.60;35.63;101049.28;5130814;27;20027;-64
2021/08/13 07:52:00;;;;;;;4.80;2.88;;;;;;;30.53;35.44;101040.28;5130800;27;20039;-63
2021/08/13 07:54:25;;;;;;;3.83;3.15;;;;;;;30.51;35.79;101039.69;5130741;27;20554;-64
2021/08/13 07:56:51;;;;;;;8.80;3.33;;;;;;;30.55;36.02;101051.09;5131057;27;20121;-63
2021/08/13 07:59:16;;;;;;;5.65;3.03;;;;;;;30.54;35.65;101055.78;5131546;27;20030;-63
2021/08/13 08:01:42;;;;;;;3.60;2.67;;;;;;;30.55;35.71;101040.88;5130524;27;20037;-63
2021/08/13 08:04:07;;;;;;;4.60;3.17;;;;;;;30.62;35.25;101040.72;5129473;27;20062;-63
2021/08/13 08:06:33;;;;;;;7.15;2.78;;;;;;;30.71;35.06;101043.91;5130622;27;20022;-63
2021/08/13 08:08:58;;;;;;;5.70;2.78;;;;;;;30.81;34.72;101036.69;5130178;27;20027;-63
2021/08/13 08:11:24;;;;;;;8.40;3.58;;;;;;;30.87;34.44;101032.91;5130999;27;20031;-63
2021/08/13 08:13:49;;;;;;;4.13;2.92;;;;;;;31.11;33.74;101039.16;5129298;27;20023;-63
2021/08/13 08:16:15;;;;;;;4.35;3.13;;;;;;;31.17;33.96;101038.97;5130771;27;20098;-64
2021/08/13 08:18:40;;;;;;;16.45;3.35;;;;;;;31.29;33.80;101042.53;5130898;27;20057;-63
2021/08/13 08:21:06;;;;;;;8.85;3.47;;;;;;;31.39;33.67;101041.84;5130739;28;20390;-64
2021/08/13 08:23:31;;;;;;;4.35;2.85;;;;;;;31.44;33.18;101034.47;5130829;28;20027;-63
2021/08/13 08:25:57;;;;;;;4.93;3.13;;;;;;;31.61;32.84;101038.06;5130380;28;20034;-63
2021/08/13 08:28:22;;;;;;;6.20;2.95;;;;;;;31.74;32.42;101045.16;5130548;28;20034;-63
2021/08/13 08:30:48;;;;;;;6.88;3.22;;;;;;;31.90;32.09;101047.94;5129254;27;20075;-63
2021/08/13 08:33:13;;;;;;;7.28;2.50;;;;;;;32.06;31.99;101052.59;5129982;27;20023;-63
2021/08/13 08:35:39;;;;;;;6.60;3.00;;;;;;;32.15;31.73;101042.72;5133238;27;20520;-63
2021/08/13 08:38:04;;;;;;;6.53;3.47;;;;;;;32.36;31.60;101049.38;5133176;27;20390;-63
2021/08/13 08:40:33;;;;;;;9.80;2.92;;;;;;;32.51;31.19;101053.22;5134539;27;20038;-64
2021/08/13 08:43:01;;;;;;;5.72;2.85;;;;;;;32.71;30.91;101052.56;5134472;27;20054;-63
2021/08/13 08:45:30;;;;;;;5.15;2.90;;;;;;;32.90;31.03;101048.34;5132878;27;20050;-64
2021/08/13 08:48:02;;;;;;;4.30;2.88;;;;;;;33.04;30.77;101040.44;5134257;27;20097;-63
2021/08/13 08:50:29;;;;;;;3.40;2.90;;;;;;;33.26;30.49;101055.06;5134281;27;20019;-64
2021/08/13 08:52:57;;;;;;;6.85;2.92;;;;;;;33.33;30.13;101050.13;5134222;27;20035;-63
2021/08/13 08:55:24;;;;;;;6.70;2.88;;;;;;;33.28;30.10;101042.59;5134422;27;20069;-63
2021/08/13 08:57:53;;;;;;;4.85;3.05;;;;;;;33.30;30.10;101042.31;5134362;27;20065;-63
2021/08/13 09:00:19;;;;;;;4.88;3.10;;;;;;;33.32;30.08;101048.44;5134352;27;20026;-63
2021/08/13 09:02:45;;;;;;;3.75;2.72;;;;;;;33.24;29.96;101041.41;5134012;27;20457;-63
2021/08/13 09:05:12;;;;;;;5.78;3.00;;;;;;;33.24;30.05;101038.63;5133920;27;20031;-63
2021/08/13 09:07:38;;;;;;;4.78;2.97;;;;;;;33.28;29.93;101053.72;5134029;27;20379;-64
2021/08/13 09:10:05;;;;;;;7.38;3.10;;;;;;;33.24;30.00;101035.03;5133886;27;20023;-63
2021/08/13 09:12:33;;;;;;;4.93;3.00;;;;;;;33.28;30.12;101048.16;5132447;27;20027;-63
2021/08/13 09:14:59;;;;;;;7.30;2.63;;;;;;;33.27;30.21;101040.88;5133574;27;20076;-64
2021/08/13 09:17:29;;;;;;;8.52;2.80;;;;;;;33.40;30.11;101039.66;5134168;27;20015;-64
2021/08/13 09:19:55;;;;;;;5.57;2.88;;;;;;;33.43;30.05;101041.91;5133853;27;20023;-64
2021/08/13 09:22:21;;;;;;;5.28;2.83;;;;;;;33.50;29.77;101034.16;5133888;27;20049;-64
2021/08/13 09:24:50;;;;;;;3.58;2.80;;;;;;;33.58;29.06;101026.13;5133667;27;20038;-64
2021/08/13 09:27:16;;;;;;;5.13;2.97;;;;;;;33.68;29.45;101037.31;5133354;27;20531;-63
2021/08/13 09:30:08;;;;;;;7.68;3.05;;;;;;;33.75;29.15;101045.47;5133717;27;20425;-63
2021/08/13 09:32:35;;;;;;;4.75;2.90;;;;;;;33.80;29.17;101032.41;5133682;27;20019;-64
2021/08/13 09:35:04;;;;;;;6.32;3.30;;;;;;;33.85;29.08;101028.81;5133154;27;20035;-64
2021/08/13 09:37:29;;;;;;;7.30;3.00;;;;;;;33.85;29.25;101026.03;5133241;27;20034;-64
2021/08/13 09:39:57;;;;;;;8.13;3.50;;;;;;;33.89;29.08;101022.47;5133715;27;20471;-64
2021/08/13 09:42:40;;;;;;;4.18;2.75;;;;;;;33.94;28.99;101038.34;5131715;27;20079;-64
2021/08/13 09:45:09;;;;;;;6.53;2.90;;;;;;;33.93;28.74;101034.72;5133350;27;20406;-64
2021/08/13 09:47:45;;;;;;;5.32;2.92;;;;;;;33.91;29.24;101039.72;5133262;27;20083;-64
2021/08/13 09:50:14;;;;;;;4.10;3.22;;;;;;;33.88;29.17;101034.69;5133030;27;20429;-64
2021/08/13 09:52:40;;;;;;;7.30;2.65;;;;;;;33.83;29.41;101025.44;5133183;27;20135;-64
2021/08/13 09:55:10;;;;;;;7.10;3.08;;;;;;;33.83;29.41;101022.66;5131658;27;20489;-64
2021/08/13 09:57:44;;;;;;;5.78;2.95;;;;;;;33.80;29.25;101023.19;5133204;27;20023;-64
2021/08/13 10:00:11;;;;;;;4.97;2.85;;;;;;;33.75;29.38;101032.34;5131629;27;20504;-65
2021/08/13 10:02:38;;;;;;;7.70;3.15;;;;;;;33.74;29.46;101027.06;5132878;27;20015;-64
2021/08/13 10:05:19;;;;;;;3.45;2.95;;;;;;;33.67;29.92;101026.47;5132833;27;20200;-65
2021/08/13 10:07:52;;;;;;;5.88;3.20;;;;;;;33.67;29.67;101020.91;5132874;27;20019;-64
2021/08/13 10:10:47;;;;;;;3.85;2.70;;;;;;;33.67;30.11;101023.69;5131501;27;20031;-64
2021/08/13 10:13:13;;;;;;;6.63;3.13;;;;;;;33.72;29.69;101023.72;5123154;27;20486;-64
2021/08/13 10:15:46;;;;;;;3.65;3.35;;;;;;;33.73;29.62;101017.03;5132893;27;20019;-64
2021/08/13 10:18:15;;;;;;;6.68;3.42;;;;;;;33.67;29.80;101013.41;5132566;27;20524;-64
2021/08/13 10:20:43;;;;;;;6.55;3.22;;;;;;;33.69;29.92;101019.50;5132678;27;20023;-64
2021/08/13 10:23:10;;;;;;;3.33;2.80;;;;;;;33.66;30.29;101010.88;5132556;27;20035;-64
2021/08/13 10:25:36;;;;;;;7.38;3.08;;;;;;;33.60;29.74;101010.03;5132770;27;20436;-64
2021/08/13 10:28:02;;;;;;;7.80;3.10;;;;;;;33.57;29.94;101018.91;5132428;27;20102;-64
2021/08/13 10:30:28;;;;;;;3.55;3.25;;;;;;;33.53;29.94;101019.69;5132871;27;20436;-64
2021/08/13 10:32:56;;;;;;;5.85;3.58;;;;;;;33.50;30.27;101023.03;5132470;27;20098;-64
2021/08/13 10:35:34;;;;;;;3.78;3.17;;;;;;;33.48;30.83;101014.94;5131331;27;20494;-64
2021/08/13 10:38:02;;;;;;;3.95;3.47;;;;;;;33.45;30.22;101014.63;5132025;27;20518;-64
2021/08/13 10:40:29;;;;;;;5.13;3.45;;;;;;;33.43;30.83;101011.28;5131382;27;20513;-63
2021/08/13 10:42:55;;;;;;;5.15;3.38;;;;;;;33.41;30.48;101011.56;5133197;27;20023;-63
2021/08/13 10:45:23;;;;;;;4.07;3.00;;;;;;;33.46;30.56;101005.19;5131062;27;20023;-62
2021/08/13 10:48:09;;;;;;;5.03;3.53;;;;;;;33.46;30.89;101008.78;5132116;27;20105;-63
2021/08/13 10:50:35;;;;;;;6.65;3.10;;;;;;;33.45;30.48;101001.56;5131915;27;20106;-63
2021/08/13 10:53:00;;;;;;;8.90;3.65;;;;;;;33.43;31.02;100997.38;5131410;27;20494;-62
2021/08/13 10:55:47;;;;;;;5.97;3.60;;;;;;;33.41;30.61;100997.66;5132162;27;20058;-63
2021/08/13 10:58:13;;;;;;;5.70;3.58;;;;;;;33.40;31.06;100989.56;5131924;27;20019;-63
2021/08/13 11:01:13;;;;;;;7.70;3.90;;;;;;;33.42;31.29;100993.75;5130742;27;20368;-64
2021/08/13 11:04:04;;;;;;;4.93;3.67;;;;;;;33.41;31.60;100991.22;5132192;27;20419;-64
2021/08/13 11:06:36;;;;;;;4.45;3.35;;;;;;;33.45;31.81;100996.00;5130469;27;20035;-64
2021/08/13 11:09:02;;;;;;;4.80;3.60;;;;;;;33.43;31.66;100981.50;5131589;27;20106;-64
2021/08/13 11:11:54;;;;;;;6.18;3.67;;;;;;;33.50;31.50;100986.84;5131920;27;20027;-63
2021/08/13 11:14:26;;;;;;;4.40;3.40;;;;;;;33.55;31.68;100981.28;5131466;27;20026;-64
2021/08/13 11:16:52;;;;;;;6.57;3.63;;;;;;;33.47;31.54;100959.56;5131777;27;20100;-64
2021/08/13 11:19:19;;;;;;;6.85;4.00;;;;;;;33.58;31.72;100980.75;5130101;27;20497;-64
2021/08/13 11:21:59;;;;;;;8.98;3.50;;;;;;;33.62;31.47;100979.13;5131237;27;20375;-64
2021/08/13 11:24:45;;;;;;;5.30;3.63;;;;;;;33.64;31.97;100963.84;5131644;27;20015;-64
2021/08/13 11:27:12;;;;;;;4.55;3.58;;;;;;;33.76;31.86;100971.97;5130877;27;20027;-64